Edmunds, North Dakota
Current Conditions -  °F | °C
As of 11:55 AM on Tuesday 21 Oct 2014 (Local Time) from K46D Reporting Station
Haze Haze  
Wind Chill: 59°   Ceiling: Unl
Heat Index: 59°   Visibility: 3mi
Dew Point: 41°   Wind: 26mph
Humidity: 51%   Direction: 150°SSE
Pressure: 29.84"   Gusts: 35mph
Location:  47.1531°N, 99.0384°W
Report Text: K46D 211655Z AUTO 15023G30KT 3SM HZ CLR 15/05 A2984 RMK AO2
Loading
Personal Weather Stations






























Interactive Weather Map
Tropical Storm Tracking
New forecast layout! Learn more

10-Day Weather Forecast

Advertisements
Track Severe Weather on mobile